Cedar Point, Kansas
Current Conditions -  °F | °C
As of 8:15 PM on Friday 19 Dec 2014 (Local Time) from KEWK Reporting Station
Overcast Overcast  
Wind Chill: 27°   Ceiling: 1300
Heat Index: 34°   Visibility: 5mi
Dew Point: 28°   Wind: 8mph
Humidity: 81%   Direction: 160°SSE
Pressure: 30.17"   Gusts: NA
Location:  38.26°N, 96.82°W
Report Text: KEWK 200215Z AUTO 16007KT 5SM OVC013 01/M02 A3017 RMK AO1
Loading
Personal Weather Stations






























Interactive Weather Map New forecast layout! Learn more

10-Day Weather Forecast

Advertisements
Track Severe Weather on mobile